CA-0700 weather

CLOSED Amaranth Airstrip
Ontario, Canada

Public forecast

Using degrees Celsius for public forecast. Weather courtesy of forecast.io.

METAR (pilot weather report)

Closest report is CFB Borden, 22.7 nm (42.0 km) NE. Retrieved 2019/05/27 13:00 UTC (3 minutes ago):

CYBN 271300Z AUTO 32006KT 290V350 9SM CLR 13/09 A3006 RMK SLP181

TAF (pilot weather forecast)

Closest forecast is CFB Borden, 22.7 nm (42.0 km) NE. Retrieved 2019/05/27 12:33 UTC (30 minutes ago):

TAF TAF CYBN 271130Z 2712/2724 VRB03KT P6SM FEW090 BECMG 2712/2714 34008KT FM271700 34008KT P6SM SCT040 BECMG 2720/2722 SCT060 BKN160 RMK FCST BASED ON AUTO OBS. NXT FCST BY 271800Z